Time;durP1;ratioP1;P1;durP2;ratioP2;P2;SDS_P1;SDS_P2;PMS_P1;PMS_P2;Temp;Humidity;BMP_temperature;BMP_pressure;BME280_temperature;BME280_humidity;BME280_pressure;Samples;Min_cycle;Max_cycle;Signal;HPM_P1;HPM_P2
2023/05/30 00:00:57;;;;;;;;;;;;;;;-140.72;100.00;52668.84;6218939;23;19969;-73
2023/05/30 00:03:22;;;;;;;;;;;;;;;-140.72;100.00;52638.41;6219068;23;19973;-74
2023/05/30 00:05:48;;;;;;;;;;;;;;;-140.72;100.00;52620.16;6219103;23;20013;-74
2023/05/30 00:08:13;;;;;;;;;;;;;;;-140.72;100.00;52634.38;6218653;23;19911;-73
2023/05/30 00:10:38;;;;;;;;;;;;;;;-140.72;100.00;52652.63;6219029;23;20643;-73
2023/05/30 00:13:04;;;;;;;;;;;;;;;-140.72;100.00;52620.16;6245533;23;19923;-73
2023/05/30 00:15:30;;;;;;;;;;;;;;;-140.72;100.00;52618.13;6218116;23;19976;-73
2023/05/30 00:17:57;;;;;;;;;;;;;;;-140.72;100.00;52666.84;6246525;23;19915;-72
2023/05/30 00:20:22;;;;;;;;;;;;;;;-140.72;100.00;52668.84;6218843;23;19912;-72
2023/05/30 00:22:48;;;;;;;;;;;;;;;-140.72;100.00;52638.41;6218490;23;20313;-72
2023/05/30 00:25:14;;;;;;;;;;;;;;;-140.72;100.00;52644.50;6218222;23;19934;-73
2023/05/30 00:27:40;;;;;;;;;;;;;;;-140.72;100.00;52636.38;6219056;23;19918;-73
2023/05/30 00:30:05;;;;;;;;;;;;;;;-140.72;100.00;52603.94;6245523;23;19912;-73
2023/05/30 00:32:30;;;;;;;;;;;;;;;-140.72;100.00;52622.19;6218482;23;20347;-72
2023/05/30 00:34:56;;;;;;;;;;;;;;;-140.72;100.00;52585.66;6218220;23;19993;-72
2023/05/30 00:37:21;;;;;;;;;;;;;;;-140.72;100.00;52638.41;6218747;23;19934;-72
2023/05/30 00:39:46;;;;;;;;;;;;;;;-140.72;100.00;52664.81;6246298;23;19943;-72
2023/05/30 00:42:11;;;;;;;;;;;;;;;-140.72;100.00;52636.38;6245420;23;19942;-73
2023/05/30 00:44:37;;;;;;;;;;;;;;;-140.72;100.00;52658.72;6245295;23;19959;-72
2023/05/30 00:47:02;;;;;;;;;;;;;;;-140.72;100.00;52620.16;6218496;23;19915;-72
2023/05/30 00:49:27;;;;;;;;;;;;;;;-140.72;100.00;52610.00;6245442;23;19911;-72
2023/05/30 00:51:53;;;;;;;;;;;;;;;-140.72;100.00;52624.22;6245517;23;19989;-73
2023/05/30 00:54:19;;;;;;;;;;;;;;;-140.72;100.00;52624.22;6246765;23;20269;-72
2023/05/30 00:56:44;;;;;;;;;;;;;;;-140.72;100.00;52644.50;6246945;23;19911;-73
2023/05/30 00:59:09;;;;;;;;;;;;;;;-140.72;100.00;52626.25;6246468;23;19911;-73
2023/05/30 01:01:35;;;;;;;;;;;;;;;-140.72;100.00;52622.19;6245810;23;19935;-72
2023/05/30 01:04:00;;;;;;;;;;;;;;;-140.72;100.00;52674.94;6219118;23;19994;-73
2023/05/30 01:06:27;;;;;;;;;;;;;;;-140.72;100.00;52628.28;6244762;23;19928;-73
2023/05/30 01:08:54;;;;;;;;;;;;;;;-140.72;100.00;52636.38;6245681;23;19915;-72
2023/05/30 01:11:38;;;;;;;;;;;;;;;-140.72;100.00;52638.41;6217842;23;20319;-73
2023/05/30 01:14:10;;;;;;;;;;;;;;;-140.72;100.00;52634.38;6245141;23;19926;-73
2023/05/30 01:16:39;;;;;;;;;;;;;;;-140.72;100.00;52636.38;6218526;23;19930;-72
2023/05/30 01:19:21;;;;;;;;;;;;;;;-140.72;100.00;52601.91;6244811;23;20773;-72
2023/05/30 01:21:46;;;;;;;;;;;;;;;-140.72;100.00;52618.13;6245780;23;19912;-73
2023/05/30 01:24:11;;;;;;;;;;;;;;;-140.72;100.00;52646.53;6247479;23;19911;-72
2023/05/30 01:26:55;;;;;;;;;;;;;;;-140.72;100.00;52648.56;6256252;23;19949;-71
2023/05/30 01:29:23;;;;;;;;;;;;;;;-140.72;100.00;52666.84;6219934;23;19919;-72
2023/05/30 01:31:48;;;;;;;;;;;;;;;-140.72;100.00;52632.34;6218808;23;20292;-72
2023/05/30 01:34:15;;;;;;;;;;;;;;;-140.72;100.00;52628.28;6246024;23;19990;-72
2023/05/30 01:36:40;;;;;;;;;;;;;;;-140.72;100.00;52642.47;6244872;22;20316;-73
2023/05/30 01:39:05;;;;;;;;;;;;;;;-140.72;100.00;52638.41;6218594;23;19912;-73
2023/05/30 01:41:34;;;;;;;;;;;;;;;-140.72;100.00;52626.25;6218460;23;20323;-72
2023/05/30 01:44:08;;;;;;;;;;;;;;;-140.72;100.00;52648.56;6245043;23;19919;-72
2023/05/30 01:46:36;;;;;;;;;;;;;;;-140.72;100.00;52679.00;6217875;23;19916;-72
2023/05/30 01:49:05;;;;;;;;;;;;;;;-140.72;100.00;52610.00;6245448;23;19911;-73
2023/05/30 01:51:49;;;;;;;;;;;;;;;-140.72;100.00;52648.56;6245536;23;19912;-72
2023/05/30 01:54:16;;;;;;;;;;;;;;;-140.72;100.00;52640.44;6218216;23;19922;-73
2023/05/30 01:56:42;;;;;;;;;;;;;;;-140.72;100.00;52650.59;6217600;23;19912;-73
2023/05/30 01:59:08;;;;;;;;;;;;;;;-140.72;100.00;52644.50;6244691;23;19973;-73
2023/05/30 02:01:34;;;;;;;;;;;;;;;-140.72;100.00;52626.25;6245335;23;20002;-73
2023/05/30 02:03:59;;;;;;;;;;;;;;;-140.72;100.00;52670.88;6245951;23;19938;-73
2023/05/30 02:06:24;;;;;;;;;;;;;;;-140.72;100.00;52660.75;6218468;23;19912;-73
2023/05/30 02:08:50;;;;;;;;;;;;;;;-140.72;100.00;52666.84;6244956;23;19911;-72
2023/05/30 02:11:15;;;;;;;;;;;;;;;-140.72;100.00;52658.72;6217866;23;19911;-72
2023/05/30 02:13:40;;;;;;;;;;;;;;;-140.72;100.00;52634.38;6218314;23;20243;-73
2023/05/30 02:16:06;;;;;;;;;;;;;;;-140.72;100.00;52687.13;6244628;23;19977;-72
2023/05/30 02:18:32;;;;;;;;;;;;;;;-140.72;100.00;52638.41;6244459;23;20305;-73
2023/05/30 02:20:57;;;;;;;;;;;;;;;-140.72;100.00;52632.34;6244970;23;19952;-73
2023/05/30 02:23:23;;;;;;;;;;;;;;;-140.72;100.00;52636.38;6244746;23;19922;-73
2023/05/30 02:25:48;;;;;;;;;;;;;;;-140.72;100.00;52624.22;6217480;23;20217;-72
2023/05/30 02:28:13;;;;;;;;;;;;;;;-140.72;100.00;52654.66;6244670;23;19927;-73
2023/05/30 02:30:39;;;;;;;;;;;;;;;-140.72;100.00;52612.03;6244345;23;20319;-73
2023/05/30 02:33:04;;;;;;;;;;;;;;;-140.72;100.00;52646.53;6217333;23;19911;-72
2023/05/30 02:35:29;;;;;;;;;;;;;;;-140.72;100.00;52681.03;6217458;22;20050;-73
2023/05/30 02:37:55;;;;;;;;;;;;;;;-140.72;100.00;52685.09;6244721;23;20288;-73
2023/05/30 02:40:20;;;;;;;;;;;;;;;-140.72;100.00;52650.59;6217506;23;19950;-72
2023/05/30 02:42:46;;;;;;;;;;;;;;;-140.72;100.00;52634.38;6244231;23;19950;-73
2023/05/30 02:45:11;;;;;;;;;;;;;;;-140.72;100.00;52628.28;6217712;23;19959;-73
2023/05/30 02:47:50;;;;;;;;;;;;;;;-140.72;100.00;52630.31;6244792;23;20244;-73
2023/05/30 02:50:15;;;;;;;;;;;;;;;-140.72;100.00;52658.72;6219539;23;19911;-72
2023/05/30 02:52:41;;;;;;;;;;;;;;;-140.72;100.00;52654.66;6246632;23;20759;-73
2023/05/30 02:55:06;;;;;;;;;;;;;;;-140.72;100.00;52628.28;6246323;23;19912;-73
2023/05/30 02:57:43;;;;;;;;;;;;;;;-140.72;100.00;52636.38;6246654;23;19921;-73
2023/05/30 03:00:13;;;;;;;;;;;;;;;-140.72;100.00;52658.72;6246756;23;19911;-73
2023/05/30 03:03:01;;;;;;;;;;;;;;;-140.72;100.00;52672.91;6246846;23;19915;-73
2023/05/30 03:05:28;;;;;;;;;;;;;;;-140.72;100.00;52660.75;6246203;23;19962;-73
2023/05/30 03:07:53;;;;;;;;;;;;;;;-140.72;100.00;52618.13;6219289;23;19923;-73
2023/05/30 03:10:19;;;;;;;;;;;;;;;-140.72;100.00;52618.13;6249288;23;20317;-73
2023/05/30 03:12:44;;;;;;;;;;;;;;;-140.72;100.00;52626.25;6232087;23;19922;-73
2023/05/30 03:15:09;;;;;;;;;;;;;;;-140.72;100.00;52605.94;6263789;23;19919;-73
2023/05/30 03:17:35;;;;;;;;;;;;;;;-140.72;100.00;52605.94;6225110;23;19987;-72
2023/05/30 03:20:00;;;;;;;;;;;;;;;-140.72;100.00;52648.56;6221762;23;19922;-72
2023/05/30 03:22:25;;;;;;;;;;;;;;;-140.72;100.00;52614.06;6221882;23;19916;-73
2023/05/30 03:24:50;;;;;;;;;;;;;;;-140.72;100.00;52636.38;6246849;23;19911;-73
2023/05/30 03:27:16;;;;;;;;;;;;;;;-140.72;100.00;52636.38;6220002;23;19918;-72
2023/05/30 03:29:41;;;;;;;;;;;;;;;-140.72;100.00;52634.38;6219893;23;19911;-73
2023/05/30 03:32:07;;;;;;;;;;;;;;;-140.72;100.00;52644.50;6219928;23;19943;-72
2023/05/30 03:34:33;;;;;;;;;;;;;;;-140.72;100.00;52622.19;6219930;23;19912;-73
2023/05/30 03:36:58;;;;;;;;;;;;;;;-140.72;100.00;52670.88;6246873;22;19969;-73
2023/05/30 03:39:23;;;;;;;;;;;;;;;-140.72;100.00;52634.38;6246694;23;19921;-73
2023/05/30 03:41:49;;;;;;;;;;;;;;;-140.72;100.00;52626.25;6220155;23;19943;-72
2023/05/30 03:44:14;;;;;;;;;;;;;;;-140.72;100.00;52652.63;6246296;23;19912;-73
2023/05/30 03:46:39;;;;;;;;;;;;;;;-140.72;100.00;52622.19;6219520;23;19919;-73
2023/05/30 03:49:05;;;;;;;;;;;;;;;-140.72;100.00;52658.72;6218918;23;19919;-72
2023/05/30 03:51:30;;;;;;;;;;;;;;;-140.72;100.00;52638.41;6219323;23;19998;-73
2023/05/30 03:53:56;;;;;;;;;;;;;;;-140.72;100.00;52628.28;6245629;23;19916;-72
2023/05/30 03:56:21;;;;;;;;;;;;;;;-140.72;100.00;52614.06;6218898;23;19916;-73
2023/05/30 03:58:46;;;;;;;;;;;;;;;-140.72;100.00;52654.66;6219143;23;19942;-73
2023/05/30 04:01:12;;;;;;;;;;;;;;;-140.72;100.00;52614.06;6248713;23;19994;-73
2023/05/30 04:03:37;;;;;;;;;;;;;;;-140.72;100.00;52670.88;6222459;23;19911;-72
2023/05/30 04:06:03;;;;;;;;;;;;;;;-140.72;100.00;52612.03;6250218;23;19916;-72
2023/05/30 04:08:28;;;;;;;;;;;;;;;-140.72;100.00;52630.31;6220463;23;19998;-73
2023/05/30 04:10:53;;;;;;;;;;;;;;;-140.72;100.00;52589.72;6219649;23;19912;-73
2023/05/30 04:13:18;;;;;;;;;;;;;;;-140.72;100.00;52644.50;6247518;23;20098;-72
2023/05/30 04:15:44;;;;;;;;;;;;;;;-140.72;100.00;52622.19;6220162;23;19923;-74
2023/05/30 04:18:10;;;;;;;;;;;;;;;-140.72;100.00;52616.09;6247428;23;19912;-74
2023/05/30 04:20:35;;;;;;;;;;;;;;;-140.72;100.00;52605.94;6246145;23;19950;-74
2023/05/30 04:23:00;;;;;;;;;;;;;;;-140.72;100.00;52628.28;6218639;23;19916;-74
2023/05/30 04:25:25;;;;;;;;;;;;;;;-140.72;100.00;52616.09;6218408;23;19911;-75
2023/05/30 04:27:51;;;;;;;;;;;;;;;-140.72;100.00;52646.53;6245617;23;19911;-74
2023/05/30 04:30:16;;;;;;;;;;;;;;;-140.72;100.00;52618.13;6245620;23;19912;-74
2023/05/30 04:32:52;;;;;;;;;;;;;;;-140.72;100.00;52571.47;6218575;23;19919;-75
2023/05/30 04:35:18;;;;;;;;;;;;;;;-140.72;100.00;52605.94;6245858;22;19938;-76
2023/05/30 04:37:44;;;;;;;;;;;;;;;-140.72;100.00;52597.84;6218665;23;19916;-75
2023/05/30 04:40:12;;;;;;;;;;;;;;;-140.72;100.00;52646.53;6219191;23;20328;-74
2023/05/30 04:42:39;;;;;;;;;;;;;;;-140.72;100.00;52601.91;6219595;23;19912;-74
2023/05/30 04:45:04;;;;;;;;;;;;;;;-140.72;100.00;52636.38;6219211;23;19960;-73
2023/05/30 04:47:30;;;;;;;;;;;;;;;-140.72;100.00;52640.44;6218866;23;20295;-73
2023/05/30 04:50:00;;;;;;;;;;;;;;;-140.72;100.00;52595.81;6246276;23;19918;-74
2023/05/30 04:52:25;;;;;;;;;;;;;;;-140.72;100.00;52581.59;6219978;23;19912;-73
2023/05/30 04:54:52;;;;;;;;;;;;;;;-140.72;100.00;52597.84;6246791;23;20256;-73
2023/05/30 04:57:17;;;;;;;;;;;;;;;-140.72;100.00;52589.72;6218531;23;19911;-73
2023/05/30 04:59:43;;;;;;;;;;;;;;;-140.72;100.00;52620.16;6247951;23;19962;-72
2023/05/30 05:02:08;;;;;;;;;;;;;;;-140.72;100.00;52630.31;6254823;23;19918;-72
2023/05/30 05:04:33;;;;;;;;;;;;;;;-140.72;100.00;52624.22;6249834;23;19912;-73
2023/05/30 05:06:59;;;;;;;;;;;;;;;-140.72;100.00;52626.25;6247686;23;19919;-72
2023/05/30 05:09:24;;;;;;;;;;;;;;;-140.72;100.00;52593.78;6221354;23;19912;-72
2023/05/30 05:11:50;;;;;;;;;;;;;;;-140.72;100.00;52577.53;6246702;23;20046;-73
2023/05/30 05:14:15;;;;;;;;;;;;;;;-140.72;100.00;52603.94;6246341;23;19946;-75
2023/05/30 05:16:40;;;;;;;;;;;;;;;-140.72;100.00;52585.66;6245630;23;20386;-74
2023/05/30 05:19:05;;;;;;;;;;;;;;;-140.72;100.00;52555.22;6245498;23;19916;-74
2023/05/30 05:21:30;;;;;;;;;;;;;;;-140.72;100.00;52616.09;6217730;23;20220;-74
2023/05/30 05:23:56;;;;;;;;;;;;;;;-140.72;100.00;52618.13;6245134;23;20319;-74
2023/05/30 05:26:22;;;;;;;;;;;;;;;-140.72;100.00;52573.50;6245273;23;20393;-74
2023/05/30 05:28:47;;;;;;;;;;;;;;;-140.72;100.00;52601.91;6217998;23;19912;-74
2023/05/30 05:31:12;;;;;;;;;;;;;;;-140.72;100.00;52626.25;6245113;23;19915;-73
2023/05/30 05:33:38;;;;;;;;;;;;;;;-140.72;100.00;52610.00;6218614;23;19943;-74
2023/05/30 05:36:03;;;;;;;;;;;;;;;-140.72;100.00;52632.34;6217828;23;19916;-75
2023/05/30 05:38:29;;;;;;;;;;;;;;;-140.72;100.00;52603.94;6246475;23;19919;-76
2023/05/30 05:40:54;;;;;;;;;;;;;;;-140.72;100.00;52565.38;6220088;23;20339;-78
2023/05/30 05:43:19;;;;;;;;;;;;;;;-140.72;100.00;52581.59;6223386;23;19911;-78
2023/05/30 05:45:44;;;;;;;;;;;;;;;-140.72;100.00;52557.25;6224969;23;19912;-78
2023/05/30 05:48:10;;;;;;;;;;;;;;;-140.72;100.00;52595.81;6219981;23;19919;-77
2023/05/30 05:50:35;;;;;;;;;;;;;;;-140.72;100.00;52563.34;6219238;23;19960;-76
2023/05/30 05:53:00;;;;;;;;;;;;;;;-140.72;100.00;52569.44;6245961;23;19912;-76
2023/05/30 05:55:25;;;;;;;;;;;;;;;-140.72;100.00;52593.78;6246185;23;19911;-77
2023/05/30 05:57:52;;;;;;;;;;;;;;;-140.72;100.00;52561.31;6245475;23;19918;-75
2023/05/30 06:00:17;;;;;;;;;;;;;;;-140.72;100.00;52581.59;6245705;23;19954;-75
2023/05/30 06:02:42;;;;;;;;;;;;;;;-140.72;100.00;52585.66;6220047;23;20251;-77
2023/05/30 06:05:08;;;;;;;;;;;;;;;-140.72;97.00;52555.22;6218517;23;19915;-75
2023/05/30 06:07:33;;;;;;;;;;;;;;;-140.72;92.41;52530.88;6218236;23;19916;-73
2023/05/30 06:09:59;;;;;;;;;;;;;;;-140.72;80.63;52565.38;6220245;23;19986;-73
2023/05/30 06:12:24;;;;;;;;;;;;;;;-140.72;70.12;52500.44;6246596;23;19939;-74
2023/05/30 06:14:49;;;;;;;;;;;;;;;-140.72;67.88;52551.16;6218789;23;19911;-72
2023/05/30 06:17:15;;;;;;;;;;;;;;;-140.72;52.51;52565.38;6218262;23;19983;-71
2023/05/30 06:19:40;;;;;;;;;;;;;;;-140.72;42.25;52526.81;6217609;23;19911;-72
2023/05/30 06:22:05;;;;;;;;;;;;;;;-140.72;27.58;52545.06;6217985;23;19911;-72
2023/05/30 06:24:31;;;;;;;;;;;;;;;-140.72;18.61;52536.97;6218984;23;20039;-72
2023/05/30 06:26:56;;;;;;;;;;;;;;;-140.72;11.16;52534.94;6246048;23;19918;-73
2023/05/30 06:29:21;;;;;;;;;;;;;;;-140.72;0.32;52530.88;6219911;23;19954;-73
2023/05/30 06:31:46;;;;;;;;;;;;;;;-140.72;0.00;52520.72;6246498;23;20315;-73
2023/05/30 06:34:12;;;;;;;;;;;;;;;-140.72;0.00;52522.75;6220194;23;20227;-72
2023/05/30 06:36:37;;;;;;;;;;;;;;;-140.72;0.00;52516.66;6246328;22;19918;-73
2023/05/30 06:39:02;;;;;;;;;;;;;;;-140.72;0.00;52536.97;6246793;23;19958;-73
2023/05/30 06:41:28;;;;;;;;;;;;;;;-140.72;0.00;52496.38;6219366;23;19911;-73
2023/05/30 06:43:53;;;;;;;;;;;;;;;-140.72;0.00;52528.84;6219918;23;19912;-73
2023/05/30 06:46:18;;;;;;;;;;;;;;;-140.72;0.00;52557.25;6246504;23;20280;-73
2023/05/30 06:48:44;;;;;;;;;;;;;;;-140.72;0.00;52524.78;6221744;23;19994;-73
2023/05/30 06:51:10;;;;;;;;;;;;;;;-140.72;0.00;52502.47;6224272;23;19922;-72
2023/05/30 06:53:35;;;;;;;;;;;;;;;-140.72;0.00;52476.09;6249074;23;19911;-72
2023/05/30 06:56:00;;;;;;;;;;;;;;;-140.72;0.00;52518.69;6247273;23;19935;-72
2023/05/30 06:58:25;;;;;;;;;;;;;;;-140.72;0.00;52536.97;6221760;23;19912;-72
2023/05/30 07:00:51;;;;;;;;;;;;;;;-140.72;0.00;52528.84;6247009;23;20286;-72
2023/05/30 07:03:16;;;;;;;;;;;;;;;-140.72;0.00;52528.84;6246717;23;19965;-73
2023/05/30 07:05:42;;;;;;;;;;;;;;;-140.72;0.00;52508.56;6246784;23;19959;-73
2023/05/30 07:08:07;;;;;;;;;;;;;;;-140.72;0.00;52512.59;6220356;23;20239;-72
2023/05/30 07:10:32;;;;;;;;;;;;;;;-140.72;0.00;52520.72;6246498;23;19943;-73
2023/05/30 07:12:57;;;;;;;;;;;;;;;-140.72;0.00;52504.50;6220082;23;20279;-72
2023/05/30 07:15:23;;;;;;;;;;;;;;;-140.72;0.00;52510.59;6219313;23;19981;-72
2023/05/30 07:17:48;;;;;;;;;;;;;;;-140.72;0.00;52551.16;6221537;23;20240;-72
2023/05/30 07:20:14;;;;;;;;;;;;;;;-140.72;0.00;52524.78;6246892;23;19912;-72
2023/05/30 07:22:39;;;;;;;;;;;;;;;-140.72;0.00;52541.03;6219241;23;19923;-72
2023/05/30 07:25:05;;;;;;;;;;;;;;;-140.72;0.00;52549.13;6245863;23;19923;-73
2023/05/30 07:27:30;;;;;;;;;;;;;;;-140.72;0.00;52547.09;6220120;23;19996;-72
2023/05/30 07:29:56;;;;;;;;;;;;;;;-140.72;0.00;52545.06;6246449;23;19963;-72
2023/05/30 07:32:21;;;;;;;;;;;;;;;-140.72;0.00;52551.16;6248134;23;19912;-72
2023/05/30 07:34:47;;;;;;;;;;;;;;;-140.72;0.00;52555.22;6219053;23;20343;-72
2023/05/30 07:37:12;;;;;;;;;;;;;;;-140.72;0.00;52532.91;6219819;23;19994;-72
2023/05/30 07:39:37;;;;;;;;;;;;;;;-140.72;0.00;52567.41;6246905;23;19911;-73
2023/05/30 07:42:03;;;;;;;;;;;;;;;-140.72;0.00;52530.88;6246246;23;19915;-73
2023/05/30 07:44:28;;;;;;;;;;;;;;;-140.72;0.00;52522.75;6245769;23;19915;-73
2023/05/30 07:46:53;;;;;;;;;;;;;;;-140.72;0.00;52502.47;6219278;23;19912;-73
2023/05/30 07:49:22;;;;;;;;;;;;;;;-140.72;0.00;52508.56;6245833;23;19919;-73
2023/05/30 07:51:48;;;;;;;;;;;;;;;-140.72;0.00;52478.13;6246189;23;19919;-73
2023/05/30 07:54:13;;;;;;;;;;;;;;;-140.72;0.00;52472.03;6245996;23;19922;-73
2023/05/30 07:56:38;;;;;;;;;;;;;;;-140.72;0.00;52476.09;6246989;23;20224;-73
2023/05/30 07:59:03;;;;;;;;;;;;;;;-140.72;0.00;52467.97;6246847;23;20309;-73
2023/05/30 08:01:29;;;;;;;;;;;;;;;-140.72;0.00;52453.75;6246770;23;19972;-73
2023/05/30 08:03:54;;;;;;;;;;;;;;;-140.72;0.00;52447.69;6219843;23;19987;-73
2023/05/30 08:06:20;;;;;;;;;;;;;;;-140.72;0.00;52478.13;6246685;23;20228;-73
2023/05/30 08:08:45;;;;;;;;;;;;;;;-140.72;0.00;52415.22;6221704;23;19915;-73
2023/05/30 08:11:11;;;;;;;;;;;;;;;-140.72;0.00;52463.91;6247921;23;20308;-73
2023/05/30 08:13:36;;;;;;;;;;;;;;;-140.72;0.00;52474.06;6245942;23;19911;-73
2023/05/30 08:16:02;;;;;;;;;;;;;;;-140.72;0.00;52419.28;6245980;23;20225;-73
2023/05/30 08:18:30;;;;;;;;;;;;;;;-140.72;0.00;52465.94;6245944;23;19918;-73
2023/05/30 08:20:55;;;;;;;;;;;;;;;-140.72;0.00;52437.53;6219269;23;19912;-74
2023/05/30 08:23:20;;;;;;;;;;;;;;;-140.72;0.00;52431.44;6218735;23;19911;-73
2023/05/30 08:25:46;;;;;;;;;;;;;;;-140.72;0.00;52388.84;6218842;23;19935;-74
2023/05/30 08:28:12;;;;;;;;;;;;;;;-140.72;0.00;52413.19;6218774;23;20342;-73
2023/05/30 08:30:38;;;;;;;;;;;;;;;-140.72;0.00;52390.84;6245776;23;20350;-72
2023/05/30 08:33:03;;;;;;;;;;;;;;;-140.72;0.00;52405.06;6245600;23;19915;-73
2023/05/30 08:35:28;;;;;;;;;;;;;;;-140.72;0.00;52427.38;6220256;22;20197;-72
2023/05/30 08:37:53;;;;;;;;;;;;;;;-140.72;0.00;52390.84;6237406;23;20342;-72
2023/05/30 08:40:19;;;;;;;;;;;;;;;-140.72;0.00;52350.28;6250727;23;19911;-72
2023/05/30 08:42:44;;;;;;;;;;;;;;;-140.72;0.00;52358.41;6246712;23;19994;-73
2023/05/30 08:45:10;;;;;;;;;;;;;;;-140.72;0.00;52370.56;6246611;23;19911;-73
2023/05/30 08:47:35;;;;;;;;;;;;;;;-140.72;0.00;52372.59;6218472;23;19938;-73
2023/05/30 08:50:04;;;;;;;;;;;;;;;-140.72;0.00;52346.22;6246441;23;19990;-72
2023/05/30 08:52:31;;;;;;;;;;;;;;;-140.72;0.00;52386.81;6218758;23;19911;-72
2023/05/30 08:55:01;;;;;;;;;;;;;;;-140.72;0.00;52380.72;6246954;23;19912;-72
2023/05/30 08:57:31;;;;;;;;;;;;;;;-140.72;0.00;52356.38;6252809;23;19911;-72
2023/05/30 08:59:56;;;;;;;;;;;;;;;-140.72;0.00;52327.97;6249005;23;19915;-73
2023/05/30 09:02:21;;;;;;;;;;;;;;;-140.72;0.00;52346.22;6221326;23;19966;-73
2023/05/30 09:04:47;;;;;;;;;;;;;;;-140.72;0.00;52344.19;6256344;23;19942;-73
2023/05/30 09:07:14;;;;;;;;;;;;;;;-140.72;0.00;52325.94;6221029;23;19919;-73
2023/05/30 09:09:40;;;;;;;;;;;;;;;-140.72;0.00;52309.69;6220002;23;19918;-74
2023/05/30 09:12:06;;;;;;;;;;;;;;;-140.72;0.00;52303.59;6245857;23;20250;-72
2023/05/30 09:14:31;;;;;;;;;;;;;;;-140.72;0.00;52321.88;6219324;23;20247;-72
2023/05/30 09:16:56;;;;;;;;;;;;;;;-140.72;0.00;52340.13;6245366;23;19922;-72
2023/05/30 09:19:22;;;;;;;;;;;;;;;-140.72;0.00;52299.56;6245736;23;19912;-72
2023/05/30 09:21:47;;;;;;;;;;;;;;;-140.72;0.00;52289.41;6244919;23;19934;-72
2023/05/30 09:24:12;;;;;;;;;;;;;;;-140.72;0.00;52271.16;6218675;23;19915;-73
2023/05/30 09:26:54;;;;;;;;;;;;;;;-140.72;0.00;52248.81;6245247;23;19919;-73
2023/05/30 09:29:19;;;;;;;;;;;;;;;-140.72;0.00;52271.16;6245065;23;20197;-72
2023/05/30 09:31:46;;;;;;;;;;;;;;;-140.72;0.00;52234.63;6245197;23;19954;-72
2023/05/30 09:34:16;;;;;;;;;;;;;;;-140.72;0.00;52212.31;6244979;23;19986;-72
2023/05/30 09:36:52;;;;;;;;;;;;;;;-140.72;0.00;52230.56;6244913;22;19918;-72
2023/05/30 09:39:17;;;;;;;;;;;;;;;-140.72;0.00;52165.63;6245255;23;19913;-73
2023/05/30 09:41:45;;;;;;;;;;;;;;;-140.72;0.00;52189.97;6218704;23;20355;-72
2023/05/30 09:44:10;;;;;;;;;;;;;;;-140.72;0.00;52175.78;6245168;23;19912;-72
2023/05/30 09:46:37;;;;;;;;;;;;;;;-140.72;0.00;52210.28;6217958;23;20003;-72
2023/05/30 09:49:12;;;;;;;;;;;;;;;-140.72;0.00;52175.78;6245169;23;19912;-72
2023/05/30 09:51:38;;;;;;;;;;;;;;;-140.72;0.00;52167.66;6245635;23;20224;-74
2023/05/30 09:54:04;;;;;;;;;;;;;;;-140.72;0.00;52147.38;6248304;23;19920;-73
2023/05/30 09:56:30;;;;;;;;;;;;;;;-140.72;0.00;52163.59;6221449;23;19911;-72
2023/05/30 09:59:01;;;;;;;;;;;;;;;-140.72;0.00;52212.31;6246108;23;20346;-73
2023/05/30 10:01:34;;;;;;;;;;;;;;;-140.72;0.00;52163.59;6247863;23;19912;-73
2023/05/30 10:03:59;;;;;;;;;;;;;;;-140.72;0.00;52129.13;6247895;23;19994;-73
2023/05/30 10:06:24;;;;;;;;;;;;;;;-140.72;0.00;52183.91;6221783;23;19911;-74
2023/05/30 10:08:49;;;;;;;;;;;;;;;-140.72;0.00;52129.13;6221677;23;20747;-73
2023/05/30 10:11:15;;;;;;;;;;;;;;;-140.72;0.00;52153.47;6221769;23;19912;-73
2023/05/30 10:13:41;;;;;;;;;;;;;;;-140.72;0.00;52076.34;6220932;23;20209;-73
2023/05/30 10:16:13;;;;;;;;;;;;;;;-140.72;0.00;52086.50;6220515;23;20290;-73
2023/05/30 10:18:42;;;;;;;;;;;;;;;-140.72;0.00;52054.03;6247513;23;20255;-74
2023/05/30 10:21:09;;;;;;;;;;;;;;;-140.72;0.00;52088.53;6247338;23;19915;-73
2023/05/30 10:23:34;;;;;;;;;;;;;;;-140.72;0.00;52056.06;6222952;23;19941;-73
2023/05/30 10:26:02;;;;;;;;;;;;;;;-140.72;0.00;52096.66;6253924;23;19927;-73
2023/05/30 10:28:29;;;;;;;;;;;;;;;-140.72;0.00;52102.75;6249975;23;19916;-73
2023/05/30 10:30:56;;;;;;;;;;;;;;;-140.72;0.00;52041.88;6247746;23;20224;-72
2023/05/30 10:33:22;;;;;;;;;;;;;;;-140.72;0.00;52005.34;6220729;23;19919;-73
2023/05/30 10:35:48;;;;;;;;;;;;;;;-140.72;0.00;52013.47;6219808;22;20327;-73
2023/05/30 10:38:14;;;;;;;;;;;;;;;-140.72;0.00;51999.25;6246518;23;19922;-73
2023/05/30 10:40:52;;;;;;;;;;;;;;;-140.72;0.00;52001.28;6247051;23;19995;-73
2023/05/30 10:43:23;;;;;;;;;;;;;;;-140.72;0.00;52043.91;6219785;23;19951;-74
2023/05/30 10:46:08;;;;;;;;;;;;;;;-140.72;0.00;52060.13;6220099;23;19912;-73
2023/05/30 10:48:46;;;;;;;;;;;;;;;-140.72;0.00;52049.97;6219933;23;19911;-73
2023/05/30 10:51:13;;;;;;;;;;;;;;;-140.72;0.00;52127.09;6246360;23;19918;-73
2023/05/30 10:53:40;;;;;;;;;;;;;;;-140.72;0.00;52157.53;6220059;23;19982;-72
2023/05/30 10:56:26;;;;;;;;;;;;;;;-140.72;0.00;52187.97;6247011;23;19918;-73
2023/05/30 10:58:52;;;;;;;;;;;;;;;-140.72;0.00;52279.25;6246840;23;19915;-73
2023/05/30 11:01:27;;;;;;;;;;;;;;;-140.72;0.00;52196.06;6247610;23;19987;-73
2023/05/30 11:03:56;;;;;;;;;;;;;;;-140.72;0.00;52123.03;6246617;23;20209;-73
2023/05/30 11:06:22;;;;;;;;;;;;;;;-140.72;0.00;52033.75;6247380;23;19916;-73
2023/05/30 11:08:50;;;;;;;;;;;;;;;-140.72;0.00;52135.19;6220307;23;19954;-73
2023/05/30 11:11:16;;;;;;;;;;;;;;;-140.72;0.00;52131.16;6246839;23;19935;-73
2023/05/30 11:13:46;;;;;;;;;;;;;;;-140.72;0.00;52208.25;6246618;23;20327;-73
2023/05/30 11:16:21;;;;;;;;;;;;;;;-140.72;0.00;52072.31;6247360;23;19990;-73
2023/05/30 11:18:48;;;;;;;;;;;;;;;-140.72;0.00;52125.06;6220239;23;19912;-73
2023/05/30 11:21:14;;;;;;;;;;;;;;;-140.72;0.00;52159.56;6246851;23;19915;-73
2023/05/30 11:23:58;;;;;;;;;;;;;;;-140.72;0.00;52165.63;6246076;23;19922;-73
2023/05/30 11:26:44;;;;;;;;;;;;;;;-140.72;0.00;52001.28;6246313;23;19919;-73
2023/05/30 11:29:28;;;;;;;;;;;;;;;-140.72;0.00;52080.41;6219406;23;19943;-72
2023/05/30 11:31:53;;;;;;;;;;;;;;;-140.72;0.00;52017.53;6246608;23;19942;-73
2023/05/30 11:34:19;;;;;;;;;;;;;;;-140.72;0.00;52011.44;6246976;23;19983;-73
2023/05/30 11:36:46;;;;;;;;;;;;;;;-140.72;0.00;52086.50;6221228;23;19986;-73
2023/05/30 11:39:11;;;;;;;;;;;;;;;-140.72;0.00;52088.53;6219327;23;19943;-73
2023/05/30 11:41:37;;;;;;;;;;;;;;;-140.72;0.00;52033.75;6245934;23;19912;-73
2023/05/30 11:44:03;;;;;;;;;;;;;;;-140.72;0.00;52110.84;6245742;23;19919;-73
2023/05/30 11:46:28;;;;;;;;;;;;;;;-140.72;0.00;52169.69;6246058;23;19918;-73
2023/05/30 11:49:00;;;;;;;;;;;;;;;-140.72;0.00;52216.34;6245672;23;19947;-73
2023/05/30 11:51:25;;;;;;;;;;;;;;;-140.72;0.00;52267.09;6219080;23;20339;-73
2023/05/30 11:53:51;;;;;;;;;;;;;;;-140.72;0.00;52281.28;6218980;23;19911;-73
2023/05/30 11:56:16;;;;;;;;;;;;;;;-140.72;0.00;52279.25;6218824;23;19912;-73
2023/05/30 11:58:41;;;;;;;;;;;;;;;-140.72;0.00;52277.22;6246049;23;19912;-73
2023/05/30 12:01:07;;;;;;;;;;;;;;;-140.72;0.00;52346.22;6218827;23;19918;-73
2023/05/30 12:03:32;;;;;;;;;;;;;;;-140.72;0.00;52281.28;6246353;23;19993;-74
2023/05/30 12:05:57;;;;;;;;;;;;;;;-140.72;0.00;52325.94;6246231;23;19917;-74
2023/05/30 12:08:24;;;;;;;;;;;;;;;-140.72;0.00;52327.97;6219628;23;20026;-73
2023/05/30 12:10:50;;;;;;;;;;;;;;;-140.72;0.00;52342.16;6223222;23;19912;-73
2023/05/30 12:13:17;;;;;;;;;;;;;;;-140.72;0.00;52368.53;6247999;23;19950;-73
2023/05/30 12:15:42;;;;;;;;;;;;;;;-140.72;0.00;52350.28;6219707;23;20289;-73
2023/05/30 12:18:09;;;;;;;;;;;;;;;-140.72;0.00;52392.88;6248671;23;19947;-73
2023/05/30 12:20:44;;;;;;;;;;;;;;;-140.72;0.00;52354.34;6220041;23;20247;-74
2023/05/30 12:23:10;;;;;;;;;;;;;;;-140.72;0.00;52394.91;6245687;23;19918;-73